Phillipsburg, Ohio
Current Conditions -  °F | °C
As of 12:56 PM on Friday 24 Oct 2014 (Local Time) from KDAY Reporting Station
Few Clouds Few Clouds  
Wind Chill: 62°   Ceiling: Unl
Heat Index: 62°   Visibility: 10mi
Dew Point: 42°   Wind: 7mph
Humidity: 48%   Direction: 240°WSW
Pressure: 30.09"   Gusts: NA
Location:  39.9°N, 84.4°W
Report Text: KDAY 241656Z 24006KT 10SM FEW080 FEW200 17/06 A3009 RMK AO2 PRESFR SLP190 T01670056
Loading
Personal Weather Stations






























Interactive Weather Map
Tropical Storm Tracking
New forecast layout! Learn more

10-Day Weather Forecast

Advertisements
Track Severe Weather on mobile